createdAt,value
2022-10-15T00:00:51.701Z,18.70
2022-10-15T00:03:19.000Z,18.80
2022-10-15T00:05:45.844Z,18.70
2022-10-15T00:08:13.905Z,18.70
2022-10-15T00:10:41.168Z,18.80
2022-10-15T00:13:07.998Z,18.80
2022-10-15T00:15:37.553Z,18.80
2022-10-15T00:18:04.584Z,18.70
2022-10-15T00:20:31.698Z,18.80
2022-10-15T00:22:58.637Z,18.80
2022-10-15T00:25:25.531Z,18.80
2022-10-15T00:27:52.441Z,18.80
2022-10-15T00:30:19.403Z,18.80
2022-10-15T00:35:13.363Z,18.80
2022-10-15T00:40:08.551Z,18.80
2022-10-15T00:42:35.465Z,18.80
2022-10-15T00:47:48.720Z,18.90
2022-10-15T00:50:24.925Z,18.90
2022-10-15T00:53:08.072Z,18.90
2022-10-15T00:55:40.492Z,18.70
2022-10-15T01:05:41.185Z,18.90
2022-10-15T01:10:50.180Z,18.80
2022-10-15T01:13:40.259Z,18.90
2022-10-15T01:16:22.476Z,18.90
2022-10-15T01:19:07.688Z,18.90
2022-10-15T01:21:43.138Z,18.90
2022-10-15T01:24:40.666Z,18.90
2022-10-15T01:29:48.352Z,18.90
2022-10-15T01:32:38.845Z,18.90
2022-10-15T01:35:29.784Z,18.90
2022-10-15T01:38:22.928Z,18.80
2022-10-15T01:40:56.394Z,18.80
2022-10-15T01:44:07.002Z,18.80
2022-10-15T01:50:46.727Z,18.90
2022-10-15T01:53:26.555Z,18.80
2022-10-15T01:55:58.590Z,18.80
2022-10-15T01:58:27.662Z,18.80
2022-10-15T02:00:57.333Z,18.80
2022-10-15T02:03:24.536Z,18.90
2022-10-15T02:06:06.691Z,18.80
2022-10-15T02:11:06.068Z,18.80
2022-10-15T02:13:44.467Z,18.80
2022-10-15T02:16:27.754Z,18.80
2022-10-15T02:19:15.071Z,18.80
2022-10-15T02:21:50.388Z,18.80
2022-10-15T02:24:27.389Z,18.80
2022-10-15T02:26:57.424Z,18.80
2022-10-15T02:29:29.187Z,18.80
2022-10-15T02:31:58.954Z,18.80
2022-10-15T02:34:29.611Z,18.80
2022-10-15T02:37:01.287Z,18.80
2022-10-15T02:39:28.295Z,18.80
2022-10-15T02:41:56.590Z,18.80
2022-10-15T02:44:25.176Z,18.80
2022-10-15T02:51:50.275Z,18.80
2022-10-15T03:04:10.553Z,18.80
2022-10-15T03:09:05.584Z,18.80
2022-10-15T03:18:58.151Z,18.70
2022-10-15T03:21:25.046Z,18.80
2022-10-15T03:31:31.614Z,18.70
2022-10-15T03:34:01.534Z,18.80
2022-10-15T03:43:51.507Z,18.80
2022-10-15T03:48:51.295Z,18.80
2022-10-15T03:51:23.489Z,18.90
2022-10-15T04:03:53.155Z,18.90
2022-10-15T04:08:48.595Z,18.90
2022-10-15T04:13:59.892Z,18.90
2022-10-15T04:21:22.513Z,18.90
2022-10-15T04:23:56.156Z,18.90
2022-10-15T04:26:29.187Z,18.90
2022-10-15T04:28:59.151Z,18.90
2022-10-15T04:31:26.746Z,18.90
2022-10-15T04:36:21.370Z,18.90
2022-10-15T04:41:42.721Z,18.90
2022-10-15T04:57:05.875Z,18.90
2022-10-15T04:59:33.197Z,18.80
2022-10-15T05:02:19.059Z,18.80
2022-10-15T05:09:47.055Z,18.80
2022-10-15T05:17:16.201Z,18.80
2022-10-15T05:19:44.407Z,18.90
2022-10-15T05:24:51.343Z,18.80
2022-10-15T05:30:06.542Z,18.80
2022-10-15T05:32:52.864Z,18.80
2022-10-15T05:35:21.359Z,18.90
2022-10-15T05:37:58.943Z,18.90
2022-10-15T05:40:25.828Z,18.90
2022-10-15T05:43:05.618Z,18.80
2022-10-15T05:48:06.286Z,18.90
2022-10-15T05:56:01.288Z,18.90
2022-10-15T05:58:36.480Z,18.90
2022-10-15T06:01:06.820Z,18.90
2022-10-15T06:03:36.354Z,18.90
2022-10-15T06:06:03.472Z,18.90
2022-10-15T06:11:06.897Z,18.90
2022-10-15T06:13:39.242Z,18.80
2022-10-15T06:23:29.165Z,18.90
2022-10-15T06:25:57.306Z,18.90
2022-10-15T06:30:53.285Z,18.90
2022-10-15T06:43:12.118Z,19.00
2022-10-15T06:45:42.689Z,19.00
2022-10-15T06:48:17.385Z,19.00
2022-10-15T06:53:12.288Z,19.10
2022-10-15T06:55:39.732Z,19.00
2022-10-15T06:58:06.837Z,19.10
2022-10-15T07:03:04.900Z,19.10
2022-10-15T07:05:33.099Z,19.10
2022-10-15T07:08:00.677Z,19.10
2022-10-15T07:10:30.446Z,19.10
2022-10-15T07:13:01.487Z,19.10
2022-10-15T07:15:29.406Z,19.10
2022-10-15T07:18:01.451Z,19.10
2022-10-15T07:20:32.290Z,19.10
2022-10-15T07:23:01.169Z,19.10
2022-10-15T07:25:31.472Z,19.20
2022-10-15T07:27:59.352Z,19.20
2022-10-15T07:30:27.663Z,19.20
2022-10-15T07:32:58.220Z,19.20
2022-10-15T07:35:26.699Z,19.20
2022-10-15T07:40:21.218Z,19.20
2022-10-15T07:42:55.872Z,19.30
2022-10-15T07:45:28.188Z,19.30
2022-10-15T07:47:55.342Z,19.40
2022-10-15T07:50:22.440Z,19.40
2022-10-15T07:55:17.161Z,19.40
2022-10-15T07:57:43.955Z,19.50
2022-10-15T08:07:37.531Z,19.60
2022-10-15T08:15:06.987Z,19.70
2022-10-15T08:17:33.832Z,19.70
2022-10-15T08:20:00.629Z,19.70
2022-10-15T08:24:56.046Z,19.80
2022-10-15T08:27:22.991Z,19.90
2022-10-15T08:32:24.671Z,20.00
2022-10-15T08:37:19.084Z,20.00
2022-10-15T08:39:46.874Z,20.10
2022-10-15T08:42:39.460Z,20.10
2022-10-15T08:45:19.585Z,20.10
2022-10-15T08:48:00.695Z,20.10
2022-10-15T08:50:42.213Z,20.10
2022-10-15T08:53:23.808Z,20.10
2022-10-15T08:55:58.650Z,20.20
2022-10-15T08:58:43.003Z,20.10
2022-10-15T09:01:21.308Z,20.20
2022-10-15T09:04:10.003Z,20.20
2022-10-15T09:06:38.996Z,20.20
2022-10-15T09:09:24.006Z,20.20
2022-10-15T09:12:41.856Z,20.20
2022-10-15T09:15:15.250Z,20.20
2022-10-15T09:17:44.811Z,20.30
2022-10-15T09:20:19.135Z,20.30
2022-10-15T09:25:25.545Z,20.30
2022-10-15T09:27:55.261Z,20.30
2022-10-15T09:30:27.756Z,20.30
2022-10-15T09:33:03.516Z,20.30
2022-10-15T09:35:35.565Z,20.40
2022-10-15T09:38:41.031Z,20.40
2022-10-15T09:41:16.673Z,20.40
2022-10-15T09:43:48.302Z,20.40
2022-10-15T09:48:55.580Z,20.50
2022-10-15T09:51:28.019Z,20.50
2022-10-15T09:54:27.048Z,20.60
2022-10-15T09:56:56.584Z,20.60
2022-10-15T09:59:25.608Z,20.60
2022-10-15T10:02:00.370Z,20.60
2022-10-15T10:04:34.876Z,20.70
2022-10-15T10:07:04.851Z,20.70
2022-10-15T10:09:38.148Z,20.70
2022-10-15T10:12:08.581Z,20.80
2022-10-15T10:14:41.088Z,20.80
2022-10-15T10:17:20.215Z,20.80
2022-10-15T10:20:08.730Z,20.80
2022-10-15T10:22:51.190Z,20.80
2022-10-15T10:25:43.009Z,20.70
2022-10-15T10:28:09.938Z,20.80
2022-10-15T10:30:50.369Z,20.70
2022-10-15T10:33:32.054Z,20.70
2022-10-15T10:35:59.916Z,20.70
2022-10-15T10:38:38.875Z,20.70
2022-10-15T10:41:09.818Z,20.70
2022-10-15T10:43:39.542Z,20.70
2022-10-15T10:46:15.671Z,20.70
2022-10-15T10:48:54.445Z,20.70
2022-10-15T10:51:26.981Z,20.70
2022-10-15T10:54:06.473Z,20.70
2022-10-15T10:56:42.939Z,20.70
2022-10-15T10:59:20.558Z,20.70
2022-10-15T11:01:50.129Z,20.70
2022-10-15T11:04:30.481Z,20.70
2022-10-15T11:07:03.449Z,20.80
2022-10-15T11:09:56.134Z,20.80
2022-10-15T11:12:47.920Z,20.90
2022-10-15T11:15:29.788Z,20.90
2022-10-15T11:18:21.720Z,21.00
2022-10-15T11:21:12.485Z,23.20
2022-10-15T11:24:04.977Z,21.00
2022-10-15T11:27:09.562Z,21.10
2022-10-15T11:30:20.394Z,21.00
2022-10-15T11:33:28.133Z,21.10
2022-10-15T11:36:18.433Z,21.10
2022-10-15T11:39:17.453Z,21.10
2022-10-15T11:41:53.265Z,21.10
2022-10-15T11:44:51.600Z,21.10
2022-10-15T11:49:52.029Z,21.20
2022-10-15T11:52:30.979Z,21.20
2022-10-15T11:55:22.334Z,21.20
2022-10-15T11:57:52.738Z,21.30
2022-10-15T12:00:31.589Z,21.30
2022-10-15T12:03:07.286Z,21.40
2022-10-15T12:05:39.944Z,21.40
2022-10-15T12:08:10.264Z,21.50
2022-10-15T12:11:12.253Z,21.50
2022-10-15T12:14:16.240Z,21.60
2022-10-15T12:17:12.932Z,21.60
2022-10-15T12:19:50.428Z,21.60
2022-10-15T12:22:34.342Z,21.60
2022-10-15T12:25:01.708Z,21.60
2022-10-15T12:27:35.220Z,21.60
2022-10-15T12:30:07.809Z,21.60
2022-10-15T12:32:38.977Z,21.50
2022-10-15T12:35:14.426Z,21.50
2022-10-15T12:37:46.218Z,21.50
2022-10-15T12:40:29.076Z,21.50
2022-10-15T12:43:11.838Z,21.40
2022-10-15T12:45:48.783Z,21.40
2022-10-15T12:48:15.549Z,21.40
2022-10-15T12:50:43.165Z,21.40
2022-10-15T12:53:28.796Z,21.40
2022-10-15T12:56:12.022Z,21.30
2022-10-15T12:58:43.275Z,21.40
2022-10-15T13:01:15.976Z,21.40
2022-10-15T13:03:48.532Z,21.30
2022-10-15T13:06:21.333Z,21.30
2022-10-15T13:08:57.397Z,21.30
2022-10-15T13:11:27.066Z,21.40
2022-10-15T13:14:03.252Z,21.40
2022-10-15T13:16:31.104Z,21.30
2022-10-15T13:18:59.075Z,21.30
2022-10-15T13:21:49.568Z,21.30
2022-10-15T13:24:25.592Z,21.30
2022-10-15T13:26:52.913Z,21.30
2022-10-15T13:29:29.105Z,21.30
2022-10-15T13:31:56.888Z,21.30
2022-10-15T13:34:32.817Z,21.30
2022-10-15T13:37:01.989Z,21.30
2022-10-15T13:39:30.869Z,21.30
2022-10-15T13:42:22.443Z,21.30
2022-10-15T13:45:14.477Z,21.30
2022-10-15T13:47:46.717Z,21.30
2022-10-15T13:52:44.382Z,21.20
2022-10-15T13:55:18.559Z,21.20
2022-10-15T14:00:25.172Z,21.20
2022-10-15T14:03:24.414Z,21.20
2022-10-15T14:05:53.480Z,21.20
2022-10-15T14:10:49.152Z,21.10
2022-10-15T14:13:16.196Z,21.10
2022-10-15T14:18:13.583Z,21.00
2022-10-15T14:20:47.886Z,21.00
2022-10-15T14:23:24.019Z,21.00
2022-10-15T14:26:02.900Z,20.90
2022-10-15T14:28:32.829Z,20.90
2022-10-15T14:31:01.367Z,20.90
2022-10-15T14:33:42.049Z,20.90
2022-10-15T14:36:40.419Z,20.90
2022-10-15T14:39:35.239Z,20.80
2022-10-15T14:42:16.487Z,20.80
2022-10-15T14:44:48.321Z,20.80
2022-10-15T14:47:22.787Z,20.80
2022-10-15T14:50:00.098Z,20.80
2022-10-15T14:52:30.571Z,20.70
2022-10-15T14:55:00.555Z,20.70
2022-10-15T14:57:31.873Z,20.70
2022-10-15T15:00:00.454Z,20.70
2022-10-15T15:02:28.774Z,20.70
2022-10-15T15:05:11.057Z,20.70
2022-10-15T15:10:07.583Z,20.70
2022-10-15T15:12:35.290Z,20.70
2022-10-15T15:17:30.728Z,20.70
2022-10-15T15:19:58.159Z,20.70
2022-10-15T15:22:31.314Z,20.70
2022-10-15T15:25:00.224Z,20.60
2022-10-15T15:27:30.032Z,20.60
2022-10-15T15:29:57.748Z,20.60
2022-10-15T15:34:53.911Z,20.60
2022-10-15T15:37:22.846Z,20.60
2022-10-15T15:39:50.397Z,20.70
2022-10-15T15:42:22.968Z,20.60
2022-10-15T15:44:50.258Z,20.60
2022-10-15T15:52:14.024Z,20.60
2022-10-15T15:54:41.182Z,20.60
2022-10-15T15:57:08.236Z,20.60
2022-10-15T15:59:35.181Z,20.60
2022-10-15T16:11:52.745Z,20.60
2022-10-15T16:14:19.641Z,20.60
2022-10-15T16:21:41.867Z,20.50
2022-10-15T16:24:08.669Z,20.50
2022-10-15T16:29:02.929Z,20.50
2022-10-15T16:33:59.253Z,20.50
2022-10-15T16:43:48.799Z,20.40
2022-10-15T16:46:18.050Z,20.40
2022-10-15T16:51:15.832Z,20.40
2022-10-15T16:53:46.080Z,20.30
2022-10-15T16:56:19.444Z,20.40
2022-10-15T16:58:46.840Z,20.40
2022-10-15T17:01:21.474Z,20.40
2022-10-15T17:03:49.122Z,20.40
2022-10-15T17:06:18.841Z,20.40
2022-10-15T17:08:51.384Z,20.40
2022-10-15T17:11:22.647Z,20.50
2022-10-15T17:13:52.927Z,20.40
2022-10-15T17:16:26.184Z,20.50
2022-10-15T17:18:53.970Z,20.40
2022-10-15T17:21:23.848Z,20.50
2022-10-15T17:23:53.574Z,20.50
2022-10-15T17:26:23.743Z,20.50
2022-10-15T17:28:51.692Z,20.60
2022-10-15T17:31:23.960Z,20.60
2022-10-15T17:33:58.935Z,20.60
2022-10-15T17:36:27.062Z,20.50
2022-10-15T17:38:56.897Z,20.60
2022-10-15T17:41:25.679Z,20.60
2022-10-15T17:43:53.828Z,20.60
2022-10-15T17:46:27.253Z,20.60
2022-10-15T17:48:55.797Z,20.60
2022-10-15T17:51:26.013Z,20.70
2022-10-15T17:53:58.554Z,20.70
2022-10-15T17:56:28.089Z,20.70
2022-10-15T17:58:57.127Z,20.70
2022-10-15T18:01:56.342Z,20.70
2022-10-15T18:06:45.607Z,20.70
2022-10-15T18:09:25.827Z,20.70
2022-10-15T18:12:00.429Z,20.70
2022-10-15T18:14:30.228Z,20.70
2022-10-15T18:19:26.743Z,20.70
2022-10-15T18:21:55.348Z,20.70
2022-10-15T18:24:23.829Z,20.70
2022-10-15T18:26:51.700Z,20.70
2022-10-15T18:29:19.076Z,20.70
2022-10-15T18:31:47.173Z,20.70
2022-10-15T18:34:14.215Z,20.70
2022-10-15T18:36:42.576Z,20.70
2022-10-15T18:39:10.060Z,20.70
2022-10-15T18:41:38.322Z,20.70
2022-10-15T18:44:07.511Z,20.70
2022-10-15T18:46:35.244Z,20.70
2022-10-15T18:49:02.896Z,20.70
2022-10-15T18:51:30.855Z,20.70
2022-10-15T18:53:59.144Z,20.70
2022-10-15T18:56:26.312Z,20.60
2022-10-15T18:58:53.289Z,20.70
2022-10-15T19:01:24.692Z,20.60
2022-10-15T19:03:52.816Z,20.60
2022-10-15T19:06:22.024Z,20.60
2022-10-15T19:08:50.705Z,20.60
2022-10-15T19:11:19.994Z,20.60
2022-10-15T19:18:44.351Z,20.50
2022-10-15T19:21:12.121Z,20.60
2022-10-15T19:23:39.099Z,20.50
2022-10-15T19:26:10.530Z,20.50
2022-10-15T19:28:38.075Z,20.60
2022-10-15T19:31:07.423Z,20.60
2022-10-15T19:33:37.724Z,20.50
2022-10-15T19:36:05.192Z,20.50
2022-10-15T19:41:04.654Z,20.50
2022-10-15T19:43:31.853Z,20.50
2022-10-15T19:46:04.195Z,20.50
2022-10-15T19:48:31.639Z,20.50
2022-10-15T19:51:02.444Z,20.50
2022-10-15T19:53:30.564Z,20.50
2022-10-15T19:56:03.612Z,20.50
2022-10-15T19:58:31.436Z,20.50
2022-10-15T20:03:28.796Z,20.50
2022-10-15T20:05:57.432Z,20.50
2022-10-15T20:08:25.445Z,20.50
2022-10-15T20:10:52.582Z,20.50
2022-10-15T20:13:22.143Z,20.50
2022-10-15T20:15:51.641Z,20.50
2022-10-15T20:18:20.164Z,20.50
2022-10-15T20:20:47.994Z,20.50
2022-10-15T20:23:17.525Z,20.50
2022-10-15T20:25:45.233Z,20.50
2022-10-15T20:28:13.180Z,20.50
2022-10-15T20:30:40.814Z,20.50
2022-10-15T20:33:08.703Z,20.50
2022-10-15T20:35:37.447Z,20.40
2022-10-15T20:38:05.862Z,20.40
2022-10-15T20:40:34.484Z,20.40
2022-10-15T20:43:01.823Z,20.30
2022-10-15T20:45:33.383Z,20.30
2022-10-15T20:48:00.245Z,16.30
2022-10-15T20:50:32.201Z,20.20
2022-10-15T20:52:59.345Z,20.20
2022-10-15T20:55:26.129Z,20.10
2022-10-15T21:00:20.431Z,20.10
2022-10-15T21:05:14.501Z,20.10
2022-10-15T21:07:41.346Z,20.00
2022-10-15T21:10:08.500Z,20.00
2022-10-15T21:15:02.568Z,19.90
2022-10-15T21:19:56.541Z,19.90
2022-10-15T21:24:50.579Z,19.90
2022-10-15T21:27:17.361Z,19.80
2022-10-15T21:29:45.488Z,19.80
2022-10-15T21:32:12.370Z,19.80
2022-10-15T21:37:11.300Z,19.80
2022-10-15T21:39:38.164Z,19.80
2022-10-15T21:42:05.008Z,19.70
2022-10-15T21:44:31.971Z,19.70
2022-10-15T21:46:58.816Z,19.70
2022-10-15T21:49:25.610Z,19.70
2022-10-15T21:56:46.903Z,19.70
2022-10-15T22:01:42.150Z,19.80
2022-10-15T22:04:10.713Z,19.80
2022-10-15T22:06:40.146Z,19.80
2022-10-15T22:09:08.460Z,19.80
2022-10-15T22:11:38.009Z,19.80
2022-10-15T22:14:09.758Z,19.80
2022-10-15T22:16:38.504Z,19.80
2022-10-15T22:19:06.442Z,19.80
2022-10-15T22:21:36.343Z,19.80
2022-10-15T22:24:10.120Z,19.80
2022-10-15T22:26:39.751Z,19.80
2022-10-15T22:29:17.206Z,19.80
2022-10-15T22:31:44.543Z,19.80
2022-10-15T22:39:07.890Z,19.80
2022-10-15T22:41:39.612Z,19.80
2022-10-15T22:44:12.776Z,19.80
2022-10-15T22:46:40.633Z,19.80
2022-10-15T22:49:08.635Z,19.80
2022-10-15T22:51:35.460Z,19.80
2022-10-15T22:54:02.368Z,19.80
2022-10-15T22:56:29.685Z,19.90
2022-10-15T22:58:57.281Z,19.90
2022-10-15T23:01:26.554Z,19.90
2022-10-15T23:03:56.479Z,19.90
2022-10-15T23:06:24.399Z,19.90
2022-10-15T23:08:51.691Z,19.90
2022-10-15T23:13:46.781Z,19.90
2022-10-15T23:16:19.416Z,19.90
2022-10-15T23:18:48.175Z,19.90
2022-10-15T23:21:40.997Z,19.90
2022-10-15T23:24:08.124Z,19.90
2022-10-15T23:26:35.317Z,19.90
2022-10-15T23:29:03.892Z,20.00
2022-10-15T23:31:33.256Z,19.90
2022-10-15T23:36:29.527Z,19.90
2022-10-15T23:38:58.657Z,19.90
2022-10-15T23:41:26.744Z,20.00
2022-10-15T23:46:21.122Z,19.90
2022-10-15T23:48:48.933Z,19.90
2022-10-15T23:51:30.209Z,19.90
2022-10-15T23:53:58.895Z,19.90
2022-10-15T23:56:26.734Z,19.90
2022-10-15T23:58:56.241Z,20.40
